Time;durP1;ratioP1;P1;durP2;ratioP2;P2;SDS_P1;SDS_P2;PMS_P1;PMS_P2;Temp;Humidity;BMP_temperature;BMP_pressure;BME280_temperature;BME280_humidity;BME280_pressure;Samples;Min_cycle;Max_cycle;Signal;HPM_P1;HPM_P2
2023/12/31 00:00:32;;;;;;;;;;;8.30;99.90;;;;;;4966644;28;20605;-66
2023/12/31 00:02:58;;;;;;;;;;;8.40;99.90;;;;;;4979346;28;19925;-66
2023/12/31 00:05:24;;;;;;;;;;;8.30;99.90;;;;;;4947051;28;19925;-66
2023/12/31 00:07:50;;;;;;;;;;;8.40;99.90;;;;;;4980309;28;19929;-66
2023/12/31 00:10:17;;;;;;;;;;;8.30;99.90;;;;;;4944293;28;21021;-66
2023/12/31 00:12:47;;;;;;;;;;;8.30;99.90;;;;;;4975411;28;19924;-66
2023/12/31 00:15:13;;;;;;;;;;;8.30;99.90;;;;;;4946459;28;20103;-66
2023/12/31 00:17:39;;;;;;;;;;;8.40;99.90;;;;;;4979062;28;20366;-66
2023/12/31 00:20:05;;;;;;;;;;;8.40;99.90;;;;;;4956412;28;20740;-68
2023/12/31 00:22:31;;;;;;;;;;;8.40;99.90;;;;;;4973319;28;19924;-67
2023/12/31 00:24:57;;;;;;;;;;;8.40;99.90;;;;;;4944913;28;19925;-66
2023/12/31 00:27:23;;;;;;;;;;;8.50;99.90;;;;;;4976842;28;19929;-66
2023/12/31 00:29:49;;;;;;;;;;;8.50;99.90;;;;;;4937468;28;19933;-66
2023/12/31 00:32:15;;;;;;;;;;;8.50;99.90;;;;;;4975324;28;19925;-67
2023/12/31 00:34:41;;;;;;;;;;;8.50;99.90;;;;;;4965980;28;19925;-67
2023/12/31 00:37:07;;;;;;;;;;;8.50;99.90;;;;;;4992491;28;20491;-67
2023/12/31 00:39:33;;;;;;;;;;;8.50;99.90;;;;;;4955641;28;20845;-67
2023/12/31 00:41:59;;;;;;;;;;;8.50;99.90;;;;;;4971046;28;19925;-66
2023/12/31 00:44:25;;;;;;;;;;;8.50;99.90;;;;;;4945960;28;19936;-65
2023/12/31 00:46:51;;;;;;;;;;;8.50;99.90;;;;;;4967248;28;19925;-65
2023/12/31 00:49:17;;;;;;;;;;;8.50;99.90;;;;;;4946494;28;19971;-66
2023/12/31 00:51:43;;;;;;;;;;;8.50;99.90;;;;;;4977102;28;19948;-66
2023/12/31 00:54:09;;;;;;;;;;;8.40;99.90;;;;;;4947704;28;19932;-67
2023/12/31 00:56:35;;;;;;;;;;;8.50;99.90;;;;;;4973929;28;19924;-66
2023/12/31 00:59:04;;;;;;;;;;;8.40;99.90;;;;;;4945190;28;21039;-66
2023/12/31 01:01:30;;;;;;;;;;;8.40;99.90;;;;;;4973606;28;20005;-66
2023/12/31 01:03:56;;;;;;;;;;;8.40;99.90;;;;;;4953532;28;20978;-66
2023/12/31 01:06:22;;;;;;;;;;;8.40;99.90;;;;;;5003293;28;19929;-65
2023/12/31 01:08:48;;;;;;;;;;;8.30;99.90;;;;;;4948200;28;19929;-66
2023/12/31 01:11:14;;;;;;;;;;;8.40;99.90;;;;;;4960675;28;20379;-67
2023/12/31 01:13:40;;;;;;;;;;;8.40;99.90;;;;;;4951163;28;20593;-66
2023/12/31 01:16:06;;;;;;;;;;;8.30;99.90;;;;;;4989997;28;20574;-66
2023/12/31 01:18:32;;;;;;;;;;;8.30;99.90;;;;;;4979176;28;19925;-66
2023/12/31 01:20:58;;;;;;;;;;;8.20;99.90;;;;;;4939463;28;19929;-67
2023/12/31 01:23:25;;;;;;;;;;;8.20;99.90;;;;;;4974599;28;20026;-66
2023/12/31 01:25:51;;;;;;;;;;;8.20;99.90;;;;;;4949210;28;19925;-66
2023/12/31 01:28:17;;;;;;;;;;;8.10;99.90;;;;;;4978431;28;19929;-66
2023/12/31 01:30:44;;;;;;;;;;;8.10;99.90;;;;;;4945673;28;20339;-66
2023/12/31 01:33:10;;;;;;;;;;;8.10;99.90;;;;;;4976233;28;20976;-67
2023/12/31 01:35:35;;;;;;;;;;;8.00;99.90;;;;;;4946727;28;19936;-66
2023/12/31 01:38:01;;;;;;;;;;;8.00;99.90;;;;;;4976549;28;19932;-66
2023/12/31 01:40:27;;;;;;;;;;;8.00;99.90;;;;;;4933003;28;19925;-67
2023/12/31 01:42:53;;;;;;;;;;;8.00;99.90;;;;;;4973019;28;20402;-66
2023/12/31 01:45:19;;;;;;;;;;;7.90;99.90;;;;;;4949855;28;20037;-67
2023/12/31 01:47:45;;;;;;;;;;;7.90;99.90;;;;;;4973480;28;19933;-65
2023/12/31 01:50:13;;;;;;;;;;;7.90;99.90;;;;;;4946534;28;19999;-66
2023/12/31 01:52:40;;;;;;;;;;;7.90;99.90;;;;;;4972157;28;19951;-67
2023/12/31 01:55:06;;;;;;;;;;;7.90;99.90;;;;;;4972584;28;21869;-67
2023/12/31 01:57:33;;;;;;;;;;;7.80;99.90;;;;;;4984208;28;19924;-68
2023/12/31 02:00:00;;;;;;;;;;;7.80;99.90;;;;;;4948736;28;19925;-68
2023/12/31 02:02:26;;;;;;;;;;;7.80;99.90;;;;;;4975271;28;20183;-67
2023/12/31 02:04:52;;;;;;;;;;;7.80;99.90;;;;;;4950546;28;19925;-67
2023/12/31 02:07:18;;;;;;;;;;;7.80;99.90;;;;;;4989018;28;19951;-66
2023/12/31 02:09:44;;;;;;;;;;;7.80;99.90;;;;;;4965272;28;20065;-67
2023/12/31 02:12:10;;;;;;;;;;;7.80;99.90;;;;;;4972560;28;20508;-67
2023/12/31 02:14:36;;;;;;;;;;;7.80;99.90;;;;;;4956857;28;20975;-67
2023/12/31 02:17:02;;;;;;;;;;;7.80;99.90;;;;;;4958877;28;19936;-66
2023/12/31 02:19:28;;;;;;;;;;;7.80;99.90;;;;;;4949718;28;19951;-66
2023/12/31 02:21:54;;;;;;;;;;;7.80;99.90;;;;;;4976739;28;19929;-66
2023/12/31 02:24:20;;;;;;;;;;;7.80;99.90;;;;;;4951363;28;20063;-67
2023/12/31 02:26:46;;;;;;;;;;;7.80;99.90;;;;;;4980514;28;19925;-67
2023/12/31 02:29:12;;;;;;;;;;;7.80;99.90;;;;;;4947447;28;19941;-67
2023/12/31 02:31:38;;;;;;;;;;;7.80;99.90;;;;;;4963057;28;19925;-67
2023/12/31 02:34:05;;;;;;;;;;;7.80;99.90;;;;;;4951447;28;19979;-66
2023/12/31 02:36:31;;;;;;;;;;;7.80;99.90;;;;;;4971404;28;19933;-66
2023/12/31 02:38:57;;;;;;;;;;;7.80;99.90;;;;;;4949414;28;20553;-66
2023/12/31 02:41:24;;;;;;;;;;;7.80;99.90;;;;;;4981615;28;20429;-66
2023/12/31 02:43:50;;;;;;;;;;;7.80;99.90;;;;;;4954600;28;19925;-67
2023/12/31 02:46:16;;;;;;;;;;;7.80;99.90;;;;;;5006543;28;19925;-66
2023/12/31 02:48:42;;;;;;;;;;;7.80;99.90;;;;;;4951271;28;19929;-66
2023/12/31 02:51:08;;;;;;;;;;;7.80;99.90;;;;;;4962736;28;20407;-66
2023/12/31 02:53:33;;;;;;;;;;;7.90;99.90;;;;;;4973214;28;20227;-66
2023/12/31 02:56:00;;;;;;;;;;;7.90;99.90;;;;;;4958564;28;20895;-67
2023/12/31 02:58:26;;;;;;;;;;;7.90;99.90;;;;;;4980161;28;20359;-67
2023/12/31 03:00:52;;;;;;;;;;;8.00;99.90;;;;;;4948940;28;19929;-66
2023/12/31 03:03:18;;;;;;;;;;;8.00;99.90;;;;;;5010343;28;19929;-66
2023/12/31 03:05:44;;;;;;;;;;;7.90;99.90;;;;;;4934502;28;19936;-66
2023/12/31 03:08:10;;;;;;;;;;;7.90;99.90;;;;;;4978366;28;19936;-67
2023/12/31 03:10:36;;;;;;;;;;;7.90;99.90;;;;;;4948718;28;20006;-67
2023/12/31 03:13:03;;;;;;;;;;;7.90;99.90;;;;;;5008371;28;20263;-66
2023/12/31 03:15:28;;;;;;;;;;;8.00;99.90;;;;;;4980194;28;19928;-66
2023/12/31 03:17:54;;;;;;;;;;;8.00;99.90;;;;;;4978868;28;19929;-66
2023/12/31 03:20:20;;;;;;;;;;;7.90;99.90;;;;;;4945624;28;19925;-66
2023/12/31 03:22:46;;;;;;;;;;;7.90;99.90;;;;;;4979828;28;19983;-67
2023/12/31 03:25:13;;;;;;;;;;;7.90;99.90;;;;;;4947039;28;19932;-67
2023/12/31 03:27:39;;;;;;;;;;;7.90;99.90;;;;;;4972853;28;19925;-66
2023/12/31 03:30:05;;;;;;;;;;;7.90;99.90;;;;;;4972631;28;19937;-66
2023/12/31 03:32:31;;;;;;;;;;;7.90;99.90;;;;;;4980368;28;19925;-66
2023/12/31 03:34:58;;;;;;;;;;;8.00;99.90;;;;;;4949932;28;19925;-66
2023/12/31 03:37:24;;;;;;;;;;;8.10;99.90;;;;;;4977602;28;19963;-67
2023/12/31 03:39:51;;;;;;;;;;;8.10;99.90;;;;;;4949489;28;20434;-65
2023/12/31 03:42:18;;;;;;;;;;;8.00;99.90;;;;;;4978212;28;19925;-66
2023/12/31 03:44:44;;;;;;;;;;;8.00;99.90;;;;;;4960123;28;20189;-66
2023/12/31 03:47:10;;;;;;;;;;;8.00;99.90;;;;;;4982756;28;20042;-66
2023/12/31 03:49:35;;;;;;;;;;;8.10;99.90;;;;;;4954724;28;20293;-66
2023/12/31 03:52:01;;;;;;;;;;;8.10;99.90;;;;;;4984120;28;20420;-66
2023/12/31 03:54:27;;;;;;;;;;;8.00;99.90;;;;;;4950275;28;19929;-66
2023/12/31 03:56:53;;;;;;;;;;;8.10;99.90;;;;;;4984323;28;19932;-66
2023/12/31 03:59:19;;;;;;;;;;;8.10;99.90;;;;;;4948864;28;19940;-66
2023/12/31 04:01:45;;;;;;;;;;;8.10;99.90;;;;;;4977701;28;20326;-66
2023/12/31 04:04:15;;;;;;;;;;;8.10;99.90;;;;;;4958454;28;19928;-66
2023/12/31 04:06:42;;;;;;;;;;;8.10;99.90;;;;;;5000889;28;19925;-65
2023/12/31 04:09:09;;;;;;;;;;;8.00;99.90;;;;;;4972099;28;19937;-66
2023/12/31 04:11:35;;;;;;;;;;;8.00;99.90;;;;;;4967367;28;19928;-66
2023/12/31 04:14:01;;;;;;;;;;;7.90;99.90;;;;;;4951734;28;20031;-65
2023/12/31 04:16:26;;;;;;;;;;;7.90;99.90;;;;;;4982127;28;19925;-67
2023/12/31 04:18:52;;;;;;;;;;;7.90;99.90;;;;;;4951353;28;21700;-66
2023/12/31 04:21:18;;;;;;;;;;;7.90;99.90;;;;;;4976272;28;19929;-66
2023/12/31 04:23:44;;;;;;;;;;;7.90;99.90;;;;;;4946875;28;20448;-66
2023/12/31 04:26:10;;;;;;;;;;;7.90;99.90;;;;;;4985331;28;19924;-67
2023/12/31 04:28:36;;;;;;;;;;;7.80;99.90;;;;;;4966689;28;19940;-67
2023/12/31 04:31:02;;;;;;;;;;;7.80;99.90;;;;;;4950784;28;19925;-67
2023/12/31 04:33:28;;;;;;;;;;;7.80;99.90;;;;;;4978834;28;20208;-67
2023/12/31 04:35:54;;;;;;;;;;;7.80;99.90;;;;;;4931620;28;20186;-67
2023/12/31 04:38:20;;;;;;;;;;;7.80;99.90;;;;;;4977007;28;19925;-66
2023/12/31 04:40:46;;;;;;;;;;;7.80;99.90;;;;;;4979611;28;19925;-66
2023/12/31 04:43:12;;;;;;;;;;;7.80;99.90;;;;;;4977383;28;20383;-66
2023/12/31 04:45:38;;;;;;;;;;;7.80;99.90;;;;;;4949786;28;19935;-66
2023/12/31 04:48:04;;;;;;;;;;;7.80;99.90;;;;;;4979490;28;19942;-66
2023/12/31 04:50:29;;;;;;;;;;;7.80;99.90;;;;;;4948518;28;19929;-66
2023/12/31 04:52:55;;;;;;;;;;;7.90;99.90;;;;;;4979648;28;19929;-67
2023/12/31 04:55:22;;;;;;;;;;;7.90;99.90;;;;;;4954745;28;19925;-67
2023/12/31 04:57:49;;;;;;;;;;;7.90;99.90;;;;;;4981571;28;20545;-67
2023/12/31 05:00:15;;;;;;;;;;;7.90;99.90;;;;;;4967630;28;19929;-67
2023/12/31 05:02:41;;;;;;;;;;;7.80;99.90;;;;;;4976690;28;19925;-66
2023/12/31 05:05:07;;;;;;;;;;;7.80;99.90;;;;;;4947143;28;19964;-67
2023/12/31 05:07:33;;;;;;;;;;;7.80;99.90;;;;;;4976974;28;20015;-67
2023/12/31 05:09:59;;;;;;;;;;;7.80;99.90;;;;;;4946285;28;19929;-66
2023/12/31 05:12:25;;;;;;;;;;;7.80;99.90;;;;;;4973022;28;20019;-66
2023/12/31 05:14:51;;;;;;;;;;;7.80;99.90;;;;;;4951842;28;19925;-67
2023/12/31 05:17:17;;;;;;;;;;;7.80;99.90;;;;;;4981944;28;20024;-67
2023/12/31 05:19:45;;;;;;;;;;;7.80;99.90;;;;;;4965582;28;20055;-67
2023/12/31 05:22:11;;;;;;;;;;;7.80;99.90;;;;;;4995905;28;19925;-67
2023/12/31 05:24:37;;;;;;;;;;;7.80;99.90;;;;;;4953681;28;19929;-66
2023/12/31 05:27:03;;;;;;;;;;;7.80;99.90;;;;;;4970542;28;19932;-66
2023/12/31 05:29:29;;;;;;;;;;;7.80;99.90;;;;;;4951247;28;20895;-66
2023/12/31 05:31:54;;;;;;;;;;;7.80;99.90;;;;;;4983917;28;19936;-66
2023/12/31 05:34:20;;;;;;;;;;;7.80;99.90;;;;;;4952866;28;19925;-66
2023/12/31 05:36:46;;;;;;;;;;;7.80;99.90;;;;;;4978976;28;19925;-66
2023/12/31 05:39:12;;;;;;;;;;;7.80;99.90;;;;;;4974960;28;19936;-66
2023/12/31 05:41:38;;;;;;;;;;;7.80;99.90;;;;;;4986814;28;20074;-66
2023/12/31 05:44:04;;;;;;;;;;;7.80;99.90;;;;;;4953057;28;20489;-66
2023/12/31 05:46:30;;;;;;;;;;;7.70;99.90;;;;;;4964119;28;20427;-67
2023/12/31 05:48:56;;;;;;;;;;;7.70;99.90;;;;;;4953144;28;20410;-67
2023/12/31 05:51:22;;;;;;;;;;;7.70;99.90;;;;;;4985778;28;19932;-67
2023/12/31 05:53:48;;;;;;;;;;;7.80;99.90;;;;;;4950956;28;19932;-66
2023/12/31 05:56:14;;;;;;;;;;;7.80;99.90;;;;;;4980455;28;20521;-67
2023/12/31 05:58:42;;;;;;;;;;;7.80;99.90;;;;;;4954509;28;19929;-66
2023/12/31 06:01:10;;;;;;;;;;;7.80;99.90;;;;;;4977674;28;19929;-66
2023/12/31 06:03:36;;;;;;;;;;;7.70;99.90;;;;;;4970357;28;20312;-65
2023/12/31 06:06:03;;;;;;;;;;;7.80;99.90;;;;;;4937881;28;19925;-66
2023/12/31 06:08:28;;;;;;;;;;;7.80;99.90;;;;;;4980505;28;19967;-66
2023/12/31 06:10:55;;;;;;;;;;;7.80;99.90;;;;;;4949027;28;21034;-66
2023/12/31 06:13:21;;;;;;;;;;;7.80;99.90;;;;;;4983027;28;19951;-65
2023/12/31 06:15:47;;;;;;;;;;;7.80;99.90;;;;;;4947134;28;20836;-66
2023/12/31 06:18:13;;;;;;;;;;;7.80;99.90;;;;;;4980991;28;19925;-66
2023/12/31 06:20:39;;;;;;;;;;;7.80;99.90;;;;;;4955717;28;20993;-66
2023/12/31 06:23:06;;;;;;;;;;;7.80;99.90;;;;;;4979821;28;19929;-67
2023/12/31 06:25:31;;;;;;;;;;;7.80;99.90;;;;;;4950363;28;19952;-66
2023/12/31 06:27:57;;;;;;;;;;;7.80;99.90;;;;;;4983520;28;20546;-65
2023/12/31 06:30:23;;;;;;;;;;;7.80;99.90;;;;;;4948436;28;20247;-66
2023/12/31 06:32:50;;;;;;;;;;;7.70;99.90;;;;;;4979522;28;20403;-66
2023/12/31 06:35:15;;;;;;;;;;;7.70;99.90;;;;;;4956241;28;19929;-66
2023/12/31 06:37:41;;;;;;;;;;;7.70;99.90;;;;;;4982078;28;19925;-67
2023/12/31 06:40:08;;;;;;;;;;;7.70;99.90;;;;;;4954190;28;19924;-67
2023/12/31 06:42:34;;;;;;;;;;;7.70;99.90;;;;;;4977464;28;19928;-65
2023/12/31 06:45:02;;;;;;;;;;;7.70;99.90;;;;;;4959113;28;20409;-66
2023/12/31 06:47:28;;;;;;;;;;;7.70;99.90;;;;;;4975963;28;19925;-66
2023/12/31 06:49:54;;;;;;;;;;;7.70;99.90;;;;;;4940804;28;19936;-67
2023/12/31 06:52:20;;;;;;;;;;;7.70;99.90;;;;;;4979774;28;20573;-66
2023/12/31 06:54:46;;;;;;;;;;;7.70;99.90;;;;;;4950267;28;19929;-65
2023/12/31 06:57:12;;;;;;;;;;;7.70;99.90;;;;;;4980779;28;19925;-66
2023/12/31 06:59:37;;;;;;;;;;;7.70;99.90;;;;;;4953036;28;19928;-66
2023/12/31 07:02:03;;;;;;;;;;;7.70;99.90;;;;;;4978867;28;19928;-67
2023/12/31 07:04:29;;;;;;;;;;;7.80;99.90;;;;;;4952625;28;19925;-66
2023/12/31 07:06:55;;;;;;;;;;;7.80;99.90;;;;;;4980031;28;19929;-67
2023/12/31 07:09:21;;;;;;;;;;;7.80;99.90;;;;;;4979061;28;19940;-66
2023/12/31 07:11:47;;;;;;;;;;;7.70;99.90;;;;;;4978061;28;19964;-67
2023/12/31 07:14:13;;;;;;;;;;;7.70;99.90;;;;;;4946658;28;20466;-66
2023/12/31 07:16:39;;;;;;;;;;;7.70;99.90;;;;;;4971795;28;19932;-66
2023/12/31 07:19:05;;;;;;;;;;;7.70;99.90;;;;;;4954120;28;21136;-67
2023/12/31 07:21:31;;;;;;;;;;;7.70;99.90;;;;;;4995435;28;19925;-66
2023/12/31 07:23:58;;;;;;;;;;;7.70;99.90;;;;;;4979796;28;20564;-67
2023/12/31 07:26:25;;;;;;;;;;;7.80;99.90;;;;;;4978663;28;19925;-66
2023/12/31 07:28:51;;;;;;;;;;;7.90;99.90;;;;;;4967085;28;19998;-65
2023/12/31 07:31:17;;;;;;;;;;;7.90;99.90;;;;;;4983275;28;19932;-65
2023/12/31 07:33:43;;;;;;;;;;;7.90;99.90;;;;;;4949214;28;19929;-66
2023/12/31 07:36:09;;;;;;;;;;;7.90;99.90;;;;;;4979414;28;19925;-66
2023/12/31 07:38:35;;;;;;;;;;;7.90;99.90;;;;;;4965856;28;19929;-66
2023/12/31 07:41:01;;;;;;;;;;;8.00;99.90;;;;;;4974182;28;20001;-67
2023/12/31 07:43:27;;;;;;;;;;;8.00;99.90;;;;;;4976120;28;19975;-66
2023/12/31 07:45:53;;;;;;;;;;;8.00;99.90;;;;;;4947910;28;19932;-66
2023/12/31 07:48:19;;;;;;;;;;;8.00;99.90;;;;;;4978276;28;19924;-67
2023/12/31 07:50:45;;;;;;;;;;;8.10;99.90;;;;;;4947764;28;19936;-66
2023/12/31 07:53:11;;;;;;;;;;;8.10;99.90;;;;;;4977374;28;19976;-64
2023/12/31 07:55:37;;;;;;;;;;;8.10;99.90;;;;;;4955488;28;19936;-66
2023/12/31 07:58:03;;;;;;;;;;;8.10;99.90;;;;;;4980243;28;19932;-66
2023/12/31 08:00:29;;;;;;;;;;;8.10;99.90;;;;;;4945807;28;20375;-67
2023/12/31 08:02:54;;;;;;;;;;;8.20;99.90;;;;;;4975085;28;19925;-67
2023/12/31 08:05:20;;;;;;;;;;;8.10;99.90;;;;;;4955013;28;20239;-67
2023/12/31 08:07:46;;;;;;;;;;;8.20;99.90;;;;;;4977193;28;20418;-66
2023/12/31 08:10:12;;;;;;;;;;;8.20;99.90;;;;;;4954215;28;19979;-66
2023/12/31 08:12:38;;;;;;;;;;;8.20;99.90;;;;;;4979679;28;19929;-66
2023/12/31 08:15:04;;;;;;;;;;;8.30;99.90;;;;;;4955926;28;19929;-65
2023/12/31 08:17:30;;;;;;;;;;;8.20;99.90;;;;;;4969452;28;19925;-66
2023/12/31 08:19:56;;;;;;;;;;;8.20;99.90;;;;;;4948240;28;19931;-66
2023/12/31 08:22:22;;;;;;;;;;;8.20;99.90;;;;;;4964472;28;21058;-66
2023/12/31 08:24:48;;;;;;;;;;;8.20;99.90;;;;;;4948979;28;19932;-66
2023/12/31 08:27:14;;;;;;;;;;;8.20;99.90;;;;;;4974738;28;20612;-66
2023/12/31 08:29:40;;;;;;;;;;;8.20;99.90;;;;;;4946708;28;20036;-66
2023/12/31 08:32:06;;;;;;;;;;;8.20;99.90;;;;;;4966432;28;19937;-66
2023/12/31 08:34:31;;;;;;;;;;;8.20;99.90;;;;;;4948326;28;19929;-67
2023/12/31 08:36:57;;;;;;;;;;;8.20;99.90;;;;;;4978638;28;19932;-66
2023/12/31 08:39:23;;;;;;;;;;;8.20;99.90;;;;;;4949394;28;19932;-67
2023/12/31 08:41:49;;;;;;;;;;;8.30;99.90;;;;;;4986465;28;20021;-68
2023/12/31 08:44:15;;;;;;;;;;;8.30;99.90;;;;;;4953319;28;19932;-67
2023/12/31 08:46:41;;;;;;;;;;;8.30;99.90;;;;;;4983383;28;20390;-65
2023/12/31 08:49:07;;;;;;;;;;;8.30;99.90;;;;;;4957890;28;19928;-66
2023/12/31 08:51:33;;;;;;;;;;;8.30;99.90;;;;;;4986161;28;20000;-66
2023/12/31 08:53:58;;;;;;;;;;;8.40;99.90;;;;;;4956546;28;19929;-66
2023/12/31 08:56:24;;;;;;;;;;;8.40;99.90;;;;;;4988333;28;19932;-66
2023/12/31 08:58:50;;;;;;;;;;;8.50;99.90;;;;;;4950091;28;19931;-66
2023/12/31 09:01:16;;;;;;;;;;;8.40;99.90;;;;;;4967812;28;19933;-66
2023/12/31 09:03:42;;;;;;;;;;;8.50;99.90;;;;;;4962881;28;19973;-65
2023/12/31 09:06:11;;;;;;;;;;;8.60;99.90;;;;;;4986314;28;19935;-65
2023/12/31 09:08:37;;;;;;;;;;;8.50;99.90;;;;;;4966343;28;19956;-66
2023/12/31 09:11:03;;;;;;;;;;;8.60;99.90;;;;;;4956393;28;21095;-66
2023/12/31 09:13:29;;;;;;;;;;;8.60;99.90;;;;;;4978918;28;20000;-67
2023/12/31 09:15:55;;;;;;;;;;;8.60;99.90;;;;;;4948375;28;19925;-66
2023/12/31 09:18:23;;;;;;;;;;;8.60;99.90;;;;;;4978347;28;19929;-66
2023/12/31 09:20:49;;;;;;;;;;;8.70;99.90;;;;;;4978662;28;19999;-66
2023/12/31 09:23:17;;;;;;;;;;;8.70;99.90;;;;;;4976421;28;19925;-65
2023/12/31 09:25:44;;;;;;;;;;;8.70;99.90;;;;;;4937577;28;19924;-65
2023/12/31 09:28:10;;;;;;;;;;;8.70;99.90;;;;;;4978296;28;19936;-66
2023/12/31 09:30:36;;;;;;;;;;;8.70;99.90;;;;;;4943509;28;20926;-65
2023/12/31 09:33:02;;;;;;;;;;;8.70;99.90;;;;;;4978653;28;19925;-65
2023/12/31 09:35:28;;;;;;;;;;;8.70;99.90;;;;;;4953094;28;19929;-65
2023/12/31 09:37:54;;;;;;;;;;;8.70;99.90;;;;;;4972955;28;20042;-66
2023/12/31 09:40:20;;;;;;;;;;;8.70;99.90;;;;;;4943477;28;19925;-66
2023/12/31 09:42:49;;;;;;;;;;;8.80;99.90;;;;;;4970188;28;19988;-66
2023/12/31 09:45:19;;;;;;;;;;;8.80;99.90;;;;;;4945469;28;19925;-66
2023/12/31 09:47:46;;;;;;;;;;;8.80;99.90;;;;;;4977152;28;19936;-66
2023/12/31 09:50:12;;;;;;;;;;;8.90;99.90;;;;;;4938889;28;20341;-65
2023/12/31 09:52:39;;;;;;;;;;;8.90;99.90;;;;;;4954763;28;19980;-65
2023/12/31 09:55:05;;;;;;;;;;;9.00;99.90;;;;;;4953421;28;20267;-65
2023/12/31 09:57:34;;;;;;;;;;;9.00;99.90;;;;;;4974776;28;21177;-65
2023/12/31 10:00:00;;;;;;;;;;;9.00;99.90;;;;;;4931434;28;20008;-65
2023/12/31 10:02:27;;;;;;;;;;;9.00;99.90;;;;;;4989582;28;19929;-67
2023/12/31 10:04:53;;;;;;;;;;;9.10;99.90;;;;;;4936125;28;19925;-66
2023/12/31 10:07:20;;;;;;;;;;;9.10;99.90;;;;;;4972120;28;19931;-66
2023/12/31 10:09:47;;;;;;;;;;;9.10;99.90;;;;;;4937345;28;19929;-66
2023/12/31 10:12:14;;;;;;;;;;;9.10;99.90;;;;;;4974654;28;19929;-65
2023/12/31 10:14:40;;;;;;;;;;;9.20;99.90;;;;;;4952417;28;19929;-65
2023/12/31 10:17:07;;;;;;;;;;;9.20;99.90;;;;;;4972793;28;20211;-65
2023/12/31 10:19:33;;;;;;;;;;;9.30;99.90;;;;;;4965396;28;20642;-66
2023/12/31 10:21:59;;;;;;;;;;;9.30;99.90;;;;;;4972517;28;19925;-67
2023/12/31 10:24:26;;;;;;;;;;;9.40;99.90;;;;;;4972186;28;19936;-66
2023/12/31 10:26:54;;;;;;;;;;;9.40;99.90;;;;;;4994366;28;19925;-68
2023/12/31 10:29:20;;;;;;;;;;;9.40;99.90;;;;;;4957476;28;19925;-66
2023/12/31 10:31:46;;;;;;;;;;;9.40;99.90;;;;;;4986626;28;20538;-66
2023/12/31 10:34:13;;;;;;;;;;;9.50;99.90;;;;;;4951639;28;20594;-66
2023/12/31 10:36:39;;;;;;;;;;;9.50;99.90;;;;;;4978759;28;19929;-66
2023/12/31 10:39:05;;;;;;;;;;;9.50;99.90;;;;;;4949957;28;20559;-66
2023/12/31 10:41:34;;;;;;;;;;;9.50;99.90;;;;;;4975674;28;19925;-65
2023/12/31 10:44:03;;;;;;;;;;;9.50;99.90;;;;;;4955535;28;20282;-66
2023/12/31 10:46:30;;;;;;;;;;;9.50;99.90;;;;;;5000041;28;20921;-66
2023/12/31 10:49:04;;;;;;;;;;;9.60;99.90;;;;;;4980396;28;19925;-65
2023/12/31 10:51:34;;;;;;;;;;;9.70;99.90;;;;;;4963334;28;19939;-66
2023/12/31 10:54:08;;;;;;;;;;;9.70;99.90;;;;;;4950866;28;21282;-66
2023/12/31 10:56:34;;;;;;;;;;;9.70;99.90;;;;;;4974746;28;19932;-66
2023/12/31 10:59:01;;;;;;;;;;;9.80;99.90;;;;;;4953462;28;19969;-66
2023/12/31 11:01:27;;;;;;;;;;;9.80;99.90;;;;;;4977854;28;19929;-66
2023/12/31 11:03:53;;;;;;;;;;;9.80;99.90;;;;;;4948123;28;19929;-67
2023/12/31 11:06:19;;;;;;;;;;;9.70;99.90;;;;;;4973570;28;19932;-67
2023/12/31 11:08:46;;;;;;;;;;;9.70;99.90;;;;;;4981171;28;19925;-67
2023/12/31 11:11:16;;;;;;;;;;;9.60;99.90;;;;;;4978781;28;20958;-68
2023/12/31 11:13:44;;;;;;;;;;;9.60;99.90;;;;;;4951518;28;19936;-72
2023/12/31 11:16:19;;;;;;;;;;;9.50;99.90;;;;;;4979149;28;20909;-73
2023/12/31 11:18:51;;;;;;;;;;;9.50;99.90;;;;;;4969268;28;20021;-70
2023/12/31 11:21:18;;;;;;;;;;;9.40;99.90;;;;;;4963384;28;19929;-71
2023/12/31 11:23:54;;;;;;;;;;;9.40;99.90;;;;;;4947044;28;20996;-73
2023/12/31 11:26:20;;;;;;;;;;;9.30;99.90;;;;;;4962657;28;19929;-72
2023/12/31 11:28:47;;;;;;;;;;;9.30;99.90;;;;;;4964632;28;19925;-75
2023/12/31 11:31:13;;;;;;;;;;;9.30;99.90;;;;;;4958271;28;19940;-75
2023/12/31 11:33:39;;;;;;;;;;;9.20;99.90;;;;;;4963078;28;20509;-78
2023/12/31 11:36:07;;;;;;;;;;;9.10;99.90;;;;;;4977107;28;19952;-80
2023/12/31 11:38:53;;;;;;;;;;;8.90;99.90;;;;;;4984405;28;20563;-79
2023/12/31 11:41:19;;;;;;;;;;;8.60;99.90;;;;;;4964709;28;19925;-78
2023/12/31 11:43:45;;;;;;;;;;;8.40;99.90;;;;;;4961907;28;19925;-79
2023/12/31 11:46:30;;;;;;;;;;;8.20;99.90;;;;;;4970094;28;19932;-78
2023/12/31 11:48:57;;;;;;;;;;;8.00;99.90;;;;;;4952145;28;19930;-77
2023/12/31 11:51:27;;;;;;;;;;;7.90;99.90;;;;;;4970606;28;19929;-76
2023/12/31 11:53:53;;;;;;;;;;;7.80;99.90;;;;;;4974624;28;19996;-75
2023/12/31 11:56:19;;;;;;;;;;;7.70;99.90;;;;;;4961707;28;20997;-75
2023/12/31 11:58:45;;;;;;;;;;;7.70;99.90;;;;;;4981540;28;20044;-74
2023/12/31 12:01:11;;;;;;;;;;;7.70;99.90;;;;;;4953705;28;21267;-74
2023/12/31 12:03:40;;;;;;;;;;;7.70;99.90;;;;;;4970232;28;19936;-73
2023/12/31 12:06:06;;;;;;;;;;;7.70;99.90;;;;;;4981517;28;20386;-74
2023/12/31 12:08:33;;;;;;;;;;;7.70;99.90;;;;;;4976244;28;19925;-74
2023/12/31 12:11:02;;;;;;;;;;;7.70;99.90;;;;;;4954809;28;20572;-75
2023/12/31 12:13:27;;;;;;;;;;;7.80;99.90;;;;;;4983169;28;19925;-74
2023/12/31 12:15:56;;;;;;;;;;;7.90;99.90;;;;;;4933798;28;19937;-75
2023/12/31 12:18:22;;;;;;;;;;;8.10;99.90;;;;;;5012843;28;21034;-75
2023/12/31 12:20:48;;;;;;;;;;;8.50;99.90;;;;;;4933761;28;19925;-73
2023/12/31 12:23:18;;;;;;;;;;;9.80;99.90;;;;;;5008030;28;19936;-74
2023/12/31 12:25:44;;;;;;;;;;;10.70;99.90;;;;;;4931679;28;20855;-74
2023/12/31 12:28:10;;;;;;;;;;;11.10;99.90;;;;;;5011705;28;19925;-72
2023/12/31 12:30:39;;;;;;;;;;;11.40;99.90;;;;;;4933243;28;20027;-74
2023/12/31 12:33:06;;;;;;;;;;;11.10;99.90;;;;;;4980917;28;19936;-72
2023/12/31 12:35:32;;;;;;;;;;;12.10;99.90;;;;;;4933434;28;19924;-72
2023/12/31 12:37:58;;;;;;;;;;;11.70;99.90;;;;;;4976870;28;20360;-70
2023/12/31 12:40:24;;;;;;;;;;;11.80;99.90;;;;;;4968898;28;19940;-72
2023/12/31 12:42:52;;;;;;;;;;;12.20;99.90;;;;;;4975961;28;21236;-70
2023/12/31 12:45:19;;;;;;;;;;;12.50;99.90;;;;;;4976079;28;20508;-72
2023/12/31 12:47:45;;;;;;;;;;;12.80;99.90;;;;;;4976174;28;19929;-71
2023/12/31 12:50:14;;;;;;;;;;;11.40;99.90;;;;;;4945767;28;19937;-72
2023/12/31 12:52:40;;;;;;;;;;;10.50;99.90;;;;;;4973226;28;19925;-72
2023/12/31 12:55:06;;;;;;;;;;;10.00;99.90;;;;;;4959446;28;20651;-72
2023/12/31 12:57:32;;;;;;;;;;;9.60;99.90;;;;;;5002236;28;21111;-72
2023/12/31 12:59:57;;;;;;;;;;;9.30;99.90;;;;;;4951907;28;19936;-72
2023/12/31 13:02:24;;;;;;;;;;;9.10;99.90;;;;;;4973616;28;19925;-72
2023/12/31 13:04:50;;;;;;;;;;;9.00;99.90;;;;;;4956081;28;19925;-72
2023/12/31 13:07:16;;;;;;;;;;;8.90;99.90;;;;;;4975426;28;19929;-72
2023/12/31 13:09:42;;;;;;;;;;;8.90;99.90;;;;;;4957078;28;19925;-72
2023/12/31 13:12:08;;;;;;;;;;;8.80;99.90;;;;;;4977205;28;20906;-72
2023/12/31 13:14:34;;;;;;;;;;;8.70;99.90;;;;;;4958186;28;19925;-72
2023/12/31 13:17:00;;;;;;;;;;;8.70;99.90;;;;;;4968003;28;19932;-75
2023/12/31 13:19:26;;;;;;;;;;;8.60;99.90;;;;;;4956826;28;19929;-74
2023/12/31 13:21:52;;;;;;;;;;;8.50;99.90;;;;;;4975801;28;20367;-73
2023/12/31 13:24:20;;;;;;;;;;;8.50;99.90;;;;;;4958247;28;19925;-73
2023/12/31 13:26:47;;;;;;;;;;;8.40;99.90;;;;;;4968136;28;19925;-72
2023/12/31 13:29:14;;;;;;;;;;;8.30;99.90;;;;;;4950006;28;20955;-74
2023/12/31 13:31:40;;;;;;;;;;;8.20;99.90;;;;;;4972452;28;20025;-76
2023/12/31 13:34:07;;;;;;;;;;;7.90;99.90;;;;;;4956109;28;19931;-75
2023/12/31 13:36:33;;;;;;;;;;;7.80;99.90;;;;;;4975435;28;19925;-76
2023/12/31 13:38:59;;;;;;;;;;;7.70;99.90;;;;;;4955895;28;19942;-77
2023/12/31 13:41:27;;;;;;;;;;;7.60;99.90;;;;;;4977949;28;19929;-76
2023/12/31 13:43:53;;;;;;;;;;;7.60;99.90;;;;;;4949987;28;19933;-76
2023/12/31 13:46:19;;;;;;;;;;;7.50;99.90;;;;;;4979054;28;19925;-76
2023/12/31 13:48:45;;;;;;;;;;;7.50;99.90;;;;;;4953887;28;20551;-75
2023/12/31 13:51:11;;;;;;;;;;;7.50;99.90;;;;;;4967814;28;19929;-75
2023/12/31 13:53:37;;;;;;;;;;;7.50;99.90;;;;;;4967903;28;19929;-75
2023/12/31 13:56:04;;;;;;;;;;;7.50;99.90;;;;;;4958377;28;19925;-75
2023/12/31 13:58:29;;;;;;;;;;;7.50;99.90;;;;;;4985682;28;19940;-74
2023/12/31 14:00:55;;;;;;;;;;;7.50;99.90;;;;;;4988740;28;19932;-75
2023/12/31 14:03:21;;;;;;;;;;;7.50;99.90;;;;;;4988178;28;21059;-75
2023/12/31 14:05:47;;;;;;;;;;;7.50;99.90;;;;;;4963871;28;19936;-76
2023/12/31 14:08:14;;;;;;;;;;;7.50;99.90;;;;;;4988351;28;19925;-74
2023/12/31 14:10:40;;;;;;;;;;;7.60;99.90;;;;;;4964416;28;20512;-74
2023/12/31 14:13:06;;;;;;;;;;;7.60;99.90;;;;;;4967019;28;20037;-74
2023/12/31 14:15:32;;;;;;;;;;;7.60;99.90;;;;;;4961232;28;19925;-74
2023/12/31 14:17:59;;;;;;;;;;;7.60;99.90;;;;;;4988322;28;19932;-75
2023/12/31 14:20:25;;;;;;;;;;;7.60;99.90;;;;;;4941188;28;19925;-70
2023/12/31 14:22:51;;;;;;;;;;;7.70;99.90;;;;;;4983903;28;19925;-70